sensor_id;sensor_type;location;lat;lon;timestamp;temperature;humidity
68215;DHT22;55036;52.138;5.236;2024-02-14T00:00:11;9.30;97.40
68215;DHT22;55036;52.138;5.236;2024-02-14T00:02:44;9.30;97.40
68215;DHT22;55036;52.138;5.236;2024-02-14T00:05:11;9.30;97.50
68215;DHT22;55036;52.138;5.236;2024-02-14T00:07:38;9.30;97.50
68215;DHT22;55036;52.138;5.236;2024-02-14T00:10:07;9.30;97.50
68215;DHT22;55036;52.138;5.236;2024-02-14T00:12:34;9.30;97.50
68215;DHT22;55036;52.138;5.236;2024-02-14T00:15:03;9.30;97.70
68215;DHT22;55036;52.138;5.236;2024-02-14T00:17:30;9.40;97.70
68215;DHT22;55036;52.138;5.236;2024-02-14T00:19:57;9.40;97.50
68215;DHT22;55036;52.138;5.236;2024-02-14T00:22:24;9.40;97.90
68215;DHT22;55036;52.138;5.236;2024-02-14T00:24:51;9.40;97.70
68215;DHT22;55036;52.138;5.236;2024-02-14T00:27:17;9.40;97.70
68215;DHT22;55036;52.138;5.236;2024-02-14T00:29:44;9.50;97.70
68215;DHT22;55036;52.138;5.236;2024-02-14T00:32:13;9.50;97.70
68215;DHT22;55036;52.138;5.236;2024-02-14T00:34:40;9.50;97.50
68215;DHT22;55036;52.138;5.236;2024-02-14T00:37:07;9.50;97.60
68215;DHT22;55036;52.138;5.236;2024-02-14T00:39:33;9.60;97.70
68215;DHT22;55036;52.138;5.236;2024-02-14T00:42:00;9.60;97.80
68215;DHT22;55036;52.138;5.236;2024-02-14T00:44:27;9.60;97.80
68215;DHT22;55036;52.138;5.236;2024-02-14T00:46:57;9.70;97.70
68215;DHT22;55036;52.138;5.236;2024-02-14T00:49:28;9.70;98.00
68215;DHT22;55036;52.138;5.236;2024-02-14T00:51:55;9.60;98.20
68215;DHT22;55036;52.138;5.236;2024-02-14T00:54:22;9.60;98.40
68215;DHT22;55036;52.138;5.236;2024-02-14T00:56:49;9.60;98.40
68215;DHT22;55036;52.138;5.236;2024-02-14T00:59:16;9.70;98.40
68215;DHT22;55036;52.138;5.236;2024-02-14T01:01:43;9.70;98.30
68215;DHT22;55036;52.138;5.236;2024-02-14T01:04:11;9.80;98.60
68215;DHT22;55036;52.138;5.236;2024-02-14T01:06:38;9.80;98.60
68215;DHT22;55036;52.138;5.236;2024-02-14T01:09:05;9.80;99.00
68215;DHT22;55036;52.138;5.236;2024-02-14T01:11:32;9.80;99.30
68215;DHT22;55036;52.138;5.236;2024-02-14T01:13:59;9.80;99.40
68215;DHT22;55036;52.138;5.236;2024-02-14T01:16:25;9.80;99.40
68215;DHT22;55036;52.138;5.236;2024-02-14T01:18:53;9.90;99.20
68215;DHT22;55036;52.138;5.236;2024-02-14T01:21:20;9.90;99.10
68215;DHT22;55036;52.138;5.236;2024-02-14T01:23:47;9.90;99.30
68215;DHT22;55036;52.138;5.236;2024-02-14T01:26:13;9.90;99.20
68215;DHT22;55036;52.138;5.236;2024-02-14T01:28:41;10.00;99.30
68215;DHT22;55036;52.138;5.236;2024-02-14T01:31:10;10.00;99.30
68215;DHT22;55036;52.138;5.236;2024-02-14T01:33:38;10.00;99.10
68215;DHT22;55036;52.138;5.236;2024-02-14T01:36:07;10.00;99.10
68215;DHT22;55036;52.138;5.236;2024-02-14T01:38:33;10.10;99.30
68215;DHT22;55036;52.138;5.236;2024-02-14T01:41:03;10.10;99.30
68215;DHT22;55036;52.138;5.236;2024-02-14T01:43:30;10.10;99.40
68215;DHT22;55036;52.138;5.236;2024-02-14T01:46:06;10.10;99.50
68215;DHT22;55036;52.138;5.236;2024-02-14T01:48:34;10.10;99.60
68215;DHT22;55036;52.138;5.236;2024-02-14T01:51:03;10.10;99.50
68215;DHT22;55036;52.138;5.236;2024-02-14T01:53:31;10.10;99.60
68215;DHT22;55036;52.138;5.236;2024-02-14T01:55:59;10.10;99.60
68215;DHT22;55036;52.138;5.236;2024-02-14T01:58:26;10.10;99.90
68215;DHT22;55036;52.138;5.236;2024-02-14T02:00:54;10.10;99.90
68215;DHT22;55036;52.138;5.236;2024-02-14T02:03:25;10.20;99.70
68215;DHT22;55036;52.138;5.236;2024-02-14T02:05:53;10.20;99.80
68215;DHT22;55036;52.138;5.236;2024-02-14T02:08:24;10.20;99.90
68215;DHT22;55036;52.138;5.236;2024-02-14T02:10:51;10.10;99.90
68215;DHT22;55036;52.138;5.236;2024-02-14T02:13:18;10.20;99.90
68215;DHT22;55036;52.138;5.236;2024-02-14T02:15:46;10.20;99.90
68215;DHT22;55036;52.138;5.236;2024-02-14T02:18:13;10.10;99.90
68215;DHT22;55036;52.138;5.236;2024-02-14T02:20:41;10.20;99.90
68215;DHT22;55036;52.138;5.236;2024-02-14T02:23:12;10.30;99.90
68215;DHT22;55036;52.138;5.236;2024-02-14T02:25:43;10.20;99.90
68215;DHT22;55036;52.138;5.236;2024-02-14T02:28:09;10.30;99.90
68215;DHT22;55036;52.138;5.236;2024-02-14T02:30:37;10.30;99.90
68215;DHT22;55036;52.138;5.236;2024-02-14T02:33:04;10.30;99.90
68215;DHT22;55036;52.138;5.236;2024-02-14T02:35:32;10.40;99.90
68215;DHT22;55036;52.138;5.236;2024-02-14T02:37:59;10.40;99.90
68215;DHT22;55036;52.138;5.236;2024-02-14T02:40:26;10.30;99.90
68215;DHT22;55036;52.138;5.236;2024-02-14T02:42:54;10.30;99.90
68215;DHT22;55036;52.138;5.236;2024-02-14T02:45:21;10.40;99.90
68215;DHT22;55036;52.138;5.236;2024-02-14T02:47:48;10.40;99.90
68215;DHT22;55036;52.138;5.236;2024-02-14T02:50:18;10.30;99.90
68215;DHT22;55036;52.138;5.236;2024-02-14T02:52:46;10.30;99.90
68215;DHT22;55036;52.138;5.236;2024-02-14T02:55:12;10.40;99.90
68215;DHT22;55036;52.138;5.236;2024-02-14T02:57:41;10.40;99.90
68215;DHT22;55036;52.138;5.236;2024-02-14T03:00:08;10.50;99.90
68215;DHT22;55036;52.138;5.236;2024-02-14T03:02:35;10.40;99.90
68215;DHT22;55036;52.138;5.236;2024-02-14T03:05:05;10.40;99.90
68215;DHT22;55036;52.138;5.236;2024-02-14T03:07:37;10.40;99.90
68215;DHT22;55036;52.138;5.236;2024-02-14T03:10:04;10.40;99.90
68215;DHT22;55036;52.138;5.236;2024-02-14T03:12:31;10.40;99.90
68215;DHT22;55036;52.138;5.236;2024-02-14T03:15:03;10.40;99.90
68215;DHT22;55036;52.138;5.236;2024-02-14T03:17:32;10.50;99.90
68215;DHT22;55036;52.138;5.236;2024-02-14T03:19:58;10.40;99.90
68215;DHT22;55036;52.138;5.236;2024-02-14T03:22:25;10.50;99.90
68215;DHT22;55036;52.138;5.236;2024-02-14T03:24:52;10.50;99.90
68215;DHT22;55036;52.138;5.236;2024-02-14T03:27:19;10.60;99.90
68215;DHT22;55036;52.138;5.236;2024-02-14T03:29:46;10.60;99.90
68215;DHT22;55036;52.138;5.236;2024-02-14T03:32:14;10.60;99.90
68215;DHT22;55036;52.138;5.236;2024-02-14T03:34:41;10.50;99.90
68215;DHT22;55036;52.138;5.236;2024-02-14T03:37:07;10.50;99.90
68215;DHT22;55036;52.138;5.236;2024-02-14T03:39:34;10.50;99.90
68215;DHT22;55036;52.138;5.236;2024-02-14T03:42:02;10.60;99.90
68215;DHT22;55036;52.138;5.236;2024-02-14T03:44:33;10.60;99.90
68215;DHT22;55036;52.138;5.236;2024-02-14T03:47:00;10.60;99.90
68215;DHT22;55036;52.138;5.236;2024-02-14T03:49:27;10.60;99.90
68215;DHT22;55036;52.138;5.236;2024-02-14T03:51:54;10.60;99.90
68215;DHT22;55036;52.138;5.236;2024-02-14T03:54:21;10.70;99.90
68215;DHT22;55036;52.138;5.236;2024-02-14T03:56:48;10.60;99.90
68215;DHT22;55036;52.138;5.236;2024-02-14T03:59:15;10.70;99.90
68215;DHT22;55036;52.138;5.236;2024-02-14T04:01:45;10.70;99.90
68215;DHT22;55036;52.138;5.236;2024-02-14T04:04:12;10.70;99.90
68215;DHT22;55036;52.138;5.236;2024-02-14T04:06:39;10.70;99.90
68215;DHT22;55036;52.138;5.236;2024-02-14T04:09:06;10.70;99.90
68215;DHT22;55036;52.138;5.236;2024-02-14T04:11:34;10.70;99.90
68215;DHT22;55036;52.138;5.236;2024-02-14T04:14:01;10.70;99.90
68215;DHT22;55036;52.138;5.236;2024-02-14T04:16:28;10.70;99.90
68215;DHT22;55036;52.138;5.236;2024-02-14T04:18:55;10.70;99.90
68215;DHT22;55036;52.138;5.236;2024-02-14T04:21:23;10.70;99.90
68215;DHT22;55036;52.138;5.236;2024-02-14T04:23:50;10.70;99.90
68215;DHT22;55036;52.138;5.236;2024-02-14T04:26:22;10.80;99.90
68215;DHT22;55036;52.138;5.236;2024-02-14T04:28:49;10.70;99.90
68215;DHT22;55036;52.138;5.236;2024-02-14T04:31:16;10.70;99.90
68215;DHT22;55036;52.138;5.236;2024-02-14T04:33:43;10.80;99.90
68215;DHT22;55036;52.138;5.236;2024-02-14T04:36:10;10.80;99.90
68215;DHT22;55036;52.138;5.236;2024-02-14T04:38:38;10.80;99.90
68215;DHT22;55036;52.138;5.236;2024-02-14T04:41:05;10.80;99.90
68215;DHT22;55036;52.138;5.236;2024-02-14T04:43:32;10.80;99.90
68215;DHT22;55036;52.138;5.236;2024-02-14T04:45:59;10.80;99.90
68215;DHT22;55036;52.138;5.236;2024-02-14T04:48:26;10.90;99.90
68215;DHT22;55036;52.138;5.236;2024-02-14T04:50:53;10.90;99.90
68215;DHT22;55036;52.138;5.236;2024-02-14T04:53:20;10.80;99.90
68215;DHT22;55036;52.138;5.236;2024-02-14T04:55:47;10.90;99.90
68215;DHT22;55036;52.138;5.236;2024-02-14T04:58:14;10.90;99.90
68215;DHT22;55036;52.138;5.236;2024-02-14T05:00:41;10.90;99.90
68215;DHT22;55036;52.138;5.236;2024-02-14T05:03:08;10.90;99.90
68215;DHT22;55036;52.138;5.236;2024-02-14T05:05:36;10.80;99.90
68215;DHT22;55036;52.138;5.236;2024-02-14T05:08:04;10.90;99.90
68215;DHT22;55036;52.138;5.236;2024-02-14T05:10:31;10.90;99.90
68215;DHT22;55036;52.138;5.236;2024-02-14T05:12:58;10.90;99.90
68215;DHT22;55036;52.138;5.236;2024-02-14T05:15:25;10.90;99.90
68215;DHT22;55036;52.138;5.236;2024-02-14T05:17:52;10.90;99.90
68215;DHT22;55036;52.138;5.236;2024-02-14T05:20:19;10.90;99.90
68215;DHT22;55036;52.138;5.236;2024-02-14T05:22:45;10.90;99.90
68215;DHT22;55036;52.138;5.236;2024-02-14T05:25:12;10.90;99.90
68215;DHT22;55036;52.138;5.236;2024-02-14T05:27:39;10.90;99.90
68215;DHT22;55036;52.138;5.236;2024-02-14T05:30:06;10.90;99.90
68215;DHT22;55036;52.138;5.236;2024-02-14T05:32:33;11.00;99.90
68215;DHT22;55036;52.138;5.236;2024-02-14T05:35:01;11.00;99.90
68215;DHT22;55036;52.138;5.236;2024-02-14T05:37:29;11.00;99.90
68215;DHT22;55036;52.138;5.236;2024-02-14T05:39:55;11.00;99.90
68215;DHT22;55036;52.138;5.236;2024-02-14T05:42:22;11.00;99.90
68215;DHT22;55036;52.138;5.236;2024-02-14T05:44:50;11.00;99.90
68215;DHT22;55036;52.138;5.236;2024-02-14T05:47:18;11.00;99.90
68215;DHT22;55036;52.138;5.236;2024-02-14T05:49:45;11.00;99.90
68215;DHT22;55036;52.138;5.236;2024-02-14T05:52:12;11.10;99.90
68215;DHT22;55036;52.138;5.236;2024-02-14T05:54:39;11.10;99.90
68215;DHT22;55036;52.138;5.236;2024-02-14T05:57:05;11.10;99.90
68215;DHT22;55036;52.138;5.236;2024-02-14T05:59:33;11.10;99.90
68215;DHT22;55036;52.138;5.236;2024-02-14T06:02:02;11.00;99.90
68215;DHT22;55036;52.138;5.236;2024-02-14T06:04:29;11.10;99.90
68215;DHT22;55036;52.138;5.236;2024-02-14T06:06:56;11.10;99.90
68215;DHT22;55036;52.138;5.236;2024-02-14T06:09:23;11.10;99.90
68215;DHT22;55036;52.138;5.236;2024-02-14T06:11:51;11.20;99.90
68215;DHT22;55036;52.138;5.236;2024-02-14T06:14:18;11.20;99.90
68215;DHT22;55036;52.138;5.236;2024-02-14T06:16:45;11.20;99.90
68215;DHT22;55036;52.138;5.236;2024-02-14T06:19:11;11.20;99.90
68215;DHT22;55036;52.138;5.236;2024-02-14T06:21:39;11.20;99.90
68215;DHT22;55036;52.138;5.236;2024-02-14T06:24:06;11.20;99.90
68215;DHT22;55036;52.138;5.236;2024-02-14T06:26:32;11.20;99.90
68215;DHT22;55036;52.138;5.236;2024-02-14T06:29:00;11.20;99.90
68215;DHT22;55036;52.138;5.236;2024-02-14T06:31:26;11.20;99.90
68215;DHT22;55036;52.138;5.236;2024-02-14T06:33:53;11.30;99.90
68215;DHT22;55036;52.138;5.236;2024-02-14T06:36:20;11.30;99.90
68215;DHT22;55036;52.138;5.236;2024-02-14T06:38:47;11.30;99.90
68215;DHT22;55036;52.138;5.236;2024-02-14T06:41:14;11.30;99.90
68215;DHT22;55036;52.138;5.236;2024-02-14T06:43:41;11.20;99.90
68215;DHT22;55036;52.138;5.236;2024-02-14T06:46:07;11.20;99.90
68215;DHT22;55036;52.138;5.236;2024-02-14T06:48:34;11.30;99.90
68215;DHT22;55036;52.138;5.236;2024-02-14T06:51:01;11.30;99.90
68215;DHT22;55036;52.138;5.236;2024-02-14T06:53:28;11.20;99.90
68215;DHT22;55036;52.138;5.236;2024-02-14T06:55:55;11.20;99.90
68215;DHT22;55036;52.138;5.236;2024-02-14T06:58:21;11.30;99.90
68215;DHT22;55036;52.138;5.236;2024-02-14T07:00:48;11.30;99.90
68215;DHT22;55036;52.138;5.236;2024-02-14T07:03:16;11.30;99.90
68215;DHT22;55036;52.138;5.236;2024-02-14T07:05:43;11.30;99.90
68215;DHT22;55036;52.138;5.236;2024-02-14T07:08:10;11.30;99.90
68215;DHT22;55036;52.138;5.236;2024-02-14T07:10:36;11.30;99.90
68215;DHT22;55036;52.138;5.236;2024-02-14T07:13:03;11.30;99.90
68215;DHT22;55036;52.138;5.236;2024-02-14T07:15:30;11.40;99.90
68215;DHT22;55036;52.138;5.236;2024-02-14T07:17:57;11.30;99.90
68215;DHT22;55036;52.138;5.236;2024-02-14T07:20:25;11.30;99.90
68215;DHT22;55036;52.138;5.236;2024-02-14T07:22:55;11.30;99.90
68215;DHT22;55036;52.138;5.236;2024-02-14T07:25:23;11.30;99.90
68215;DHT22;55036;52.138;5.236;2024-02-14T07:27:49;11.30;99.90
68215;DHT22;55036;52.138;5.236;2024-02-14T07:30:16;11.40;99.90
68215;DHT22;55036;52.138;5.236;2024-02-14T07:32:44;11.40;99.90
68215;DHT22;55036;52.138;5.236;2024-02-14T07:35:11;11.40;99.90
68215;DHT22;55036;52.138;5.236;2024-02-14T07:37:41;11.30;99.90
68215;DHT22;55036;52.138;5.236;2024-02-14T07:40:10;11.40;99.90
68215;DHT22;55036;52.138;5.236;2024-02-14T07:42:37;11.40;99.90
68215;DHT22;55036;52.138;5.236;2024-02-14T07:45:04;11.40;99.90
68215;DHT22;55036;52.138;5.236;2024-02-14T07:47:31;11.40;99.90
68215;DHT22;55036;52.138;5.236;2024-02-14T07:49:58;11.40;99.90
68215;DHT22;55036;52.138;5.236;2024-02-14T07:52:26;11.50;99.90
68215;DHT22;55036;52.138;5.236;2024-02-14T07:54:53;11.50;99.90
68215;DHT22;55036;52.138;5.236;2024-02-14T07:57:22;11.50;99.90
68215;DHT22;55036;52.138;5.236;2024-02-14T07:59:50;11.50;99.90
68215;DHT22;55036;52.138;5.236;2024-02-14T08:02:18;11.60;99.90
68215;DHT22;55036;52.138;5.236;2024-02-14T08:04:45;11.60;99.90
68215;DHT22;55036;52.138;5.236;2024-02-14T08:07:12;11.50;99.90
68215;DHT22;55036;52.138;5.236;2024-02-14T08:09:39;11.50;99.90
68215;DHT22;55036;52.138;5.236;2024-02-14T08:12:06;11.60;99.90
68215;DHT22;55036;52.138;5.236;2024-02-14T08:14:33;11.60;99.90
68215;DHT22;55036;52.138;5.236;2024-02-14T08:17:00;11.60;99.90
68215;DHT22;55036;52.138;5.236;2024-02-14T08:19:27;11.70;99.90
68215;DHT22;55036;52.138;5.236;2024-02-14T08:21:54;11.60;99.90
68215;DHT22;55036;52.138;5.236;2024-02-14T08:24:27;11.60;99.90
68215;DHT22;55036;52.138;5.236;2024-02-14T08:26:54;11.60;99.90
68215;DHT22;55036;52.138;5.236;2024-02-14T08:29:21;11.70;99.90
68215;DHT22;55036;52.138;5.236;2024-02-14T08:31:48;11.70;99.90
68215;DHT22;55036;52.138;5.236;2024-02-14T08:34:15;11.70;99.90
68215;DHT22;55036;52.138;5.236;2024-02-14T08:36:43;11.70;99.90
68215;DHT22;55036;52.138;5.236;2024-02-14T08:39:10;11.70;99.90
68215;DHT22;55036;52.138;5.236;2024-02-14T08:41:37;11.70;99.90
68215;DHT22;55036;52.138;5.236;2024-02-14T08:44:05;11.70;99.90
68215;DHT22;55036;52.138;5.236;2024-02-14T08:46:31;11.70;99.90
68215;DHT22;55036;52.138;5.236;2024-02-14T08:49:02;11.70;99.90
68215;DHT22;55036;52.138;5.236;2024-02-14T08:51:29;11.70;99.90
68215;DHT22;55036;52.138;5.236;2024-02-14T08:53:56;11.70;99.90
68215;DHT22;55036;52.138;5.236;2024-02-14T08:56:26;11.70;99.90
68215;DHT22;55036;52.138;5.236;2024-02-14T08:58:52;11.70;99.90
68215;DHT22;55036;52.138;5.236;2024-02-14T09:01:19;11.70;99.90
68215;DHT22;55036;52.138;5.236;2024-02-14T09:03:48;11.70;99.90
68215;DHT22;55036;52.138;5.236;2024-02-14T09:06:17;11.70;99.90
68215;DHT22;55036;52.138;5.236;2024-02-14T09:08:45;11.70;99.90
68215;DHT22;55036;52.138;5.236;2024-02-14T09:11:12;11.80;99.90
68215;DHT22;55036;52.138;5.236;2024-02-14T09:13:39;11.80;99.90
68215;DHT22;55036;52.138;5.236;2024-02-14T09:16:09;11.90;99.90
68215;DHT22;55036;52.138;5.236;2024-02-14T09:18:37;11.90;99.90
68215;DHT22;55036;52.138;5.236;2024-02-14T09:21:05;11.90;99.90
68215;DHT22;55036;52.138;5.236;2024-02-14T09:23:32;11.80;99.90
68215;DHT22;55036;52.138;5.236;2024-02-14T09:26:00;11.80;99.90
68215;DHT22;55036;52.138;5.236;2024-02-14T09:28:27;11.80;99.90
68215;DHT22;55036;52.138;5.236;2024-02-14T09:30:54;11.80;99.90
68215;DHT22;55036;52.138;5.236;2024-02-14T09:33:21;11.90;99.90
68215;DHT22;55036;52.138;5.236;2024-02-14T09:35:48;11.90;99.90
68215;DHT22;55036;52.138;5.236;2024-02-14T09:38:17;11.90;99.90
68215;DHT22;55036;52.138;5.236;2024-02-14T09:40:43;11.90;99.90
68215;DHT22;55036;52.138;5.236;2024-02-14T09:43:38;12.00;99.90
68215;DHT22;55036;52.138;5.236;2024-02-14T09:46:04;12.00;99.90
68215;DHT22;55036;52.138;5.236;2024-02-14T09:48:31;12.00;99.90
68215;DHT22;55036;52.138;5.236;2024-02-14T09:50:59;12.00;99.90
68215;DHT22;55036;52.138;5.236;2024-02-14T09:53:28;12.00;99.90
68215;DHT22;55036;52.138;5.236;2024-02-14T09:55:56;12.00;99.90
68215;DHT22;55036;52.138;5.236;2024-02-14T09:58:24;12.00;99.90
68215;DHT22;55036;52.138;5.236;2024-02-14T10:01:00;12.00;99.90
68215;DHT22;55036;52.138;5.236;2024-02-14T10:03:27;12.00;99.90
68215;DHT22;55036;52.138;5.236;2024-02-14T10:05:54;12.20;99.90
68215;DHT22;55036;52.138;5.236;2024-02-14T10:08:22;12.10;99.90
68215;DHT22;55036;52.138;5.236;2024-02-14T10:10:49;12.00;99.90
68215;DHT22;55036;52.138;5.236;2024-02-14T10:13:21;12.10;99.90
68215;DHT22;55036;52.138;5.236;2024-02-14T10:15:49;12.10;99.90
68215;DHT22;55036;52.138;5.236;2024-02-14T10:18:16;12.10;99.90
68215;DHT22;55036;52.138;5.236;2024-02-14T10:20:56;12.10;99.90
68215;DHT22;55036;52.138;5.236;2024-02-14T10:23:23;12.10;99.90
68215;DHT22;55036;52.138;5.236;2024-02-14T10:25:54;12.10;99.90
68215;DHT22;55036;52.138;5.236;2024-02-14T10:28:22;12.20;99.90
68215;DHT22;55036;52.138;5.236;2024-02-14T10:31:20;12.20;99.90
68215;DHT22;55036;52.138;5.236;2024-02-14T10:33:47;12.10;99.90
68215;DHT22;55036;52.138;5.236;2024-02-14T10:36:17;12.20;99.90
68215;DHT22;55036;52.138;5.236;2024-02-14T10:38:46;12.30;99.90
68215;DHT22;55036;52.138;5.236;2024-02-14T10:41:17;12.30;99.90
68215;DHT22;55036;52.138;5.236;2024-02-14T10:43:44;12.30;99.90
68215;DHT22;55036;52.138;5.236;2024-02-14T10:46:20;12.30;99.90
68215;DHT22;55036;52.138;5.236;2024-02-14T10:49:01;12.40;99.90
68215;DHT22;55036;52.138;5.236;2024-02-14T10:51:34;12.40;99.90
68215;DHT22;55036;52.138;5.236;2024-02-14T10:54:12;12.50;99.90
68215;DHT22;55036;52.138;5.236;2024-02-14T10:56:41;12.50;99.90
68215;DHT22;55036;52.138;5.236;2024-02-14T10:59:13;12.50;99.90
68215;DHT22;55036;52.138;5.236;2024-02-14T11:01:42;12.50;99.90
68215;DHT22;55036;52.138;5.236;2024-02-14T11:04:09;12.50;99.90
68215;DHT22;55036;52.138;5.236;2024-02-14T11:06:51;12.50;99.90
68215;DHT22;55036;52.138;5.236;2024-02-14T11:09:20;12.50;99.90
68215;DHT22;55036;52.138;5.236;2024-02-14T11:11:47;12.50;99.90
68215;DHT22;55036;52.138;5.236;2024-02-14T11:14:15;12.60;99.90
68215;DHT22;55036;52.138;5.236;2024-02-14T11:16:45;12.60;99.90
68215;DHT22;55036;52.138;5.236;2024-02-14T11:19:13;12.60;99.90
68215;DHT22;55036;52.138;5.236;2024-02-14T11:21:41;12.60;99.90
68215;DHT22;55036;52.138;5.236;2024-02-14T11:24:14;12.60;99.90
68215;DHT22;55036;52.138;5.236;2024-02-14T11:26:47;12.60;99.90
68215;DHT22;55036;52.138;5.236;2024-02-14T11:29:15;12.50;99.90
68215;DHT22;55036;52.138;5.236;2024-02-14T11:31:48;12.50;99.90
68215;DHT22;55036;52.138;5.236;2024-02-14T11:34:15;12.60;99.90
68215;DHT22;55036;52.138;5.236;2024-02-14T11:36:43;12.50;99.90
68215;DHT22;55036;52.138;5.236;2024-02-14T11:39:11;12.60;99.90
68215;DHT22;55036;52.138;5.236;2024-02-14T11:41:38;12.60;99.90
68215;DHT22;55036;52.138;5.236;2024-02-14T11:44:05;12.60;99.90
68215;DHT22;55036;52.138;5.236;2024-02-14T11:46:33;12.60;99.90
68215;DHT22;55036;52.138;5.236;2024-02-14T11:49:02;12.70;99.90
68215;DHT22;55036;52.138;5.236;2024-02-14T11:51:30;12.60;99.90
68215;DHT22;55036;52.138;5.236;2024-02-14T11:53:58;12.70;99.90
68215;DHT22;55036;52.138;5.236;2024-02-14T11:56:36;12.70;99.90
68215;DHT22;55036;52.138;5.236;2024-02-14T11:59:04;12.70;99.90
68215;DHT22;55036;52.138;5.236;2024-02-14T12:01:34;12.80;99.90
68215;DHT22;55036;52.138;5.236;2024-02-14T12:04:02;12.80;99.90
68215;DHT22;55036;52.138;5.236;2024-02-14T12:06:31;12.80;99.90
68215;DHT22;55036;52.138;5.236;2024-02-14T12:09:05;12.80;99.90
68215;DHT22;55036;52.138;5.236;2024-02-14T12:11:32;12.80;99.90
68215;DHT22;55036;52.138;5.236;2024-02-14T12:14:06;12.80;99.90
68215;DHT22;55036;52.138;5.236;2024-02-14T12:16:35;12.80;99.90
68215;DHT22;55036;52.138;5.236;2024-02-14T12:19:23;12.80;99.90
68215;DHT22;55036;52.138;5.236;2024-02-14T12:21:50;12.90;99.90
68215;DHT22;55036;52.138;5.236;2024-02-14T12:24:17;12.90;99.90
68215;DHT22;55036;52.138;5.236;2024-02-14T12:26:44;12.90;99.90
68215;DHT22;55036;52.138;5.236;2024-02-14T12:29:11;12.90;99.90
68215;DHT22;55036;52.138;5.236;2024-02-14T12:31:40;12.80;99.90
68215;DHT22;55036;52.138;5.236;2024-02-14T12:34:11;12.90;99.90
68215;DHT22;55036;52.138;5.236;2024-02-14T12:36:38;12.90;99.90
68215;DHT22;55036;52.138;5.236;2024-02-14T12:39:05;12.90;99.90
68215;DHT22;55036;52.138;5.236;2024-02-14T12:41:33;12.90;99.90
68215;DHT22;55036;52.138;5.236;2024-02-14T12:44:02;12.90;99.90
68215;DHT22;55036;52.138;5.236;2024-02-14T12:46:29;12.90;99.90
68215;DHT22;55036;52.138;5.236;2024-02-14T12:48:56;12.80;99.90
68215;DHT22;55036;52.138;5.236;2024-02-14T12:51:23;12.80;99.90
68215;DHT22;55036;52.138;5.236;2024-02-14T12:53:55;12.80;99.90
68215;DHT22;55036;52.138;5.236;2024-02-14T12:56:22;12.80;99.90
68215;DHT22;55036;52.138;5.236;2024-02-14T12:58:50;12.80;99.90
68215;DHT22;55036;52.138;5.236;2024-02-14T13:01:16;12.80;99.90
68215;DHT22;55036;52.138;5.236;2024-02-14T13:03:44;12.90;99.90
68215;DHT22;55036;52.138;5.236;2024-02-14T13:06:12;12.90;99.90
68215;DHT22;55036;52.138;5.236;2024-02-14T13:08:41;12.90;99.90
68215;DHT22;55036;52.138;5.236;2024-02-14T13:11:08;12.90;99.90
68215;DHT22;55036;52.138;5.236;2024-02-14T13:13:35;12.90;99.90
68215;DHT22;55036;52.138;5.236;2024-02-14T13:16:03;12.90;99.90
68215;DHT22;55036;52.138;5.236;2024-02-14T13:18:33;13.00;99.90
68215;DHT22;55036;52.138;5.236;2024-02-14T13:21:00;13.00;99.90
68215;DHT22;55036;52.138;5.236;2024-02-14T13:23:28;13.10;99.90
68215;DHT22;55036;52.138;5.236;2024-02-14T13:25:54;13.00;99.90
68215;DHT22;55036;52.138;5.236;2024-02-14T13:28:21;13.00;99.90
68215;DHT22;55036;52.138;5.236;2024-02-14T13:30:48;13.00;99.90
68215;DHT22;55036;52.138;5.236;2024-02-14T13:33:15;13.00;99.90
68215;DHT22;55036;52.138;5.236;2024-02-14T13:35:42;13.00;99.90
68215;DHT22;55036;52.138;5.236;2024-02-14T13:38:08;13.00;99.90
68215;DHT22;55036;52.138;5.236;2024-02-14T13:40:36;13.00;99.90
68215;DHT22;55036;52.138;5.236;2024-02-14T13:43:03;13.00;99.90
68215;DHT22;55036;52.138;5.236;2024-02-14T13:45:40;13.00;99.90
68215;DHT22;55036;52.138;5.236;2024-02-14T13:48:09;13.10;99.90
68215;DHT22;55036;52.138;5.236;2024-02-14T13:50:36;13.10;99.90
68215;DHT22;55036;52.138;5.236;2024-02-14T13:53:06;13.10;99.90
68215;DHT22;55036;52.138;5.236;2024-02-14T13:55:33;13.10;99.90
68215;DHT22;55036;52.138;5.236;2024-02-14T13:58:00;13.10;99.90
68215;DHT22;55036;52.138;5.236;2024-02-14T14:00:26;13.10;99.90
68215;DHT22;55036;52.138;5.236;2024-02-14T14:02:53;13.10;99.90
68215;DHT22;55036;52.138;5.236;2024-02-14T14:05:22;13.10;99.90
68215;DHT22;55036;52.138;5.236;2024-02-14T14:07:49;13.10;99.90
68215;DHT22;55036;52.138;5.236;2024-02-14T14:10:25;13.20;99.90
68215;DHT22;55036;52.138;5.236;2024-02-14T14:12:53;13.20;99.90
68215;DHT22;55036;52.138;5.236;2024-02-14T14:15:20;13.20;99.90
68215;DHT22;55036;52.138;5.236;2024-02-14T14:17:49;13.10;99.90
68215;DHT22;55036;52.138;5.236;2024-02-14T14:20:16;13.10;99.90
68215;DHT22;55036;52.138;5.236;2024-02-14T14:22:42;13.10;99.90
68215;DHT22;55036;52.138;5.236;2024-02-14T14:25:09;13.10;99.90
68215;DHT22;55036;52.138;5.236;2024-02-14T14:27:36;13.10;99.90
68215;DHT22;55036;52.138;5.236;2024-02-14T14:30:03;13.10;99.90
68215;DHT22;55036;52.138;5.236;2024-02-14T14:32:30;13.10;99.90
68215;DHT22;55036;52.138;5.236;2024-02-14T14:35:00;13.10;99.90
68215;DHT22;55036;52.138;5.236;2024-02-14T14:37:26;13.20;99.90
68215;DHT22;55036;52.138;5.236;2024-02-14T14:39:53;13.20;99.90
68215;DHT22;55036;52.138;5.236;2024-02-14T14:42:21;13.20;99.90
68215;DHT22;55036;52.138;5.236;2024-02-14T14:44:48;13.20;99.90
68215;DHT22;55036;52.138;5.236;2024-02-14T14:47:15;13.20;99.90
68215;DHT22;55036;52.138;5.236;2024-02-14T14:49:42;13.20;99.90
68215;DHT22;55036;52.138;5.236;2024-02-14T14:52:08;13.20;99.90
68215;DHT22;55036;52.138;5.236;2024-02-14T14:54:35;13.20;99.90
68215;DHT22;55036;52.138;5.236;2024-02-14T14:57:02;13.20;99.90
68215;DHT22;55036;52.138;5.236;2024-02-14T14:59:33;13.10;99.90
68215;DHT22;55036;52.138;5.236;2024-02-14T15:02:02;13.20;99.90
68215;DHT22;55036;52.138;5.236;2024-02-14T15:04:29;13.20;99.90
68215;DHT22;55036;52.138;5.236;2024-02-14T15:06:55;13.30;99.90
68215;DHT22;55036;52.138;5.236;2024-02-14T15:09:22;13.30;99.90
68215;DHT22;55036;52.138;5.236;2024-02-14T15:11:49;13.20;99.90
68215;DHT22;55036;52.138;5.236;2024-02-14T15:14:16;13.30;99.90
68215;DHT22;55036;52.138;5.236;2024-02-14T15:16:44;13.30;99.90
68215;DHT22;55036;52.138;5.236;2024-02-14T15:19:11;13.30;99.90
68215;DHT22;55036;52.138;5.236;2024-02-14T15:21:38;13.30;99.90
68215;DHT22;55036;52.138;5.236;2024-02-14T15:24:06;13.30;99.90
68215;DHT22;55036;52.138;5.236;2024-02-14T15:26:34;13.20;99.90
68215;DHT22;55036;52.138;5.236;2024-02-14T15:29:17;13.20;99.90
68215;DHT22;55036;52.138;5.236;2024-02-14T15:32:03;13.20;99.90
68215;DHT22;55036;52.138;5.236;2024-02-14T15:34:48;13.20;99.90
68215;DHT22;55036;52.138;5.236;2024-02-14T15:37:15;13.20;99.90